createdAt,value
2019-05-25T00:22:45.072Z,95.70
2019-05-25T00:25:16.057Z,96.00
2019-05-25T00:27:48.043Z,96.20
2019-05-25T00:30:18.921Z,96.20
2019-05-25T00:32:50.139Z,96.40
2019-05-25T00:35:20.934Z,96.40
2019-05-25T00:37:52.390Z,97.00
2019-05-25T00:40:23.149Z,97.10
2019-05-25T00:42:53.915Z,97.40
2019-05-25T00:45:25.896Z,97.70
2019-05-25T00:47:56.612Z,97.90
2019-05-25T00:50:28.755Z,98.40
2019-05-25T00:52:59.619Z,98.90
2019-05-25T00:55:33.173Z,99.00
2019-05-25T00:58:03.992Z,99.20
2019-05-25T01:24:44.003Z,99.90
2019-05-25T01:27:09.981Z,99.90
2019-05-25T01:29:40.993Z,99.90
2019-05-25T01:32:14.695Z,99.90
2019-05-25T01:34:45.651Z,99.90
2019-05-25T01:37:16.685Z,99.90
2019-05-25T01:39:47.483Z,99.90
2019-05-25T01:42:18.209Z,99.90
2019-05-25T01:44:49.078Z,99.90
2019-05-25T01:47:22.666Z,99.90
2019-05-25T01:49:56.335Z,99.90
2019-05-25T01:52:37.679Z,99.90
2019-05-25T01:55:11.612Z,99.90
2019-05-25T01:57:42.607Z,99.90
2019-05-25T02:00:14.631Z,99.90
2019-05-25T02:02:45.458Z,99.90
2019-05-25T02:05:16.260Z,99.90
2019-05-25T02:07:47.113Z,99.90
2019-05-25T02:10:17.957Z,99.90
2019-05-25T02:12:48.814Z,99.90
2019-05-25T02:15:19.739Z,99.90
2019-05-25T02:17:50.918Z,99.90
2019-05-25T02:20:24.221Z,99.90
2019-05-25T02:22:59.396Z,99.90
2019-05-25T02:25:32.782Z,99.90
2019-05-25T02:28:03.611Z,99.90
2019-05-25T02:30:34.438Z,99.90
2019-05-25T02:33:06.687Z,99.90
2019-05-25T02:35:37.570Z,99.90
2019-05-25T02:38:09.097Z,99.90
2019-05-25T02:40:39.872Z,99.90
2019-05-25T02:43:10.566Z,99.90
2019-05-25T02:45:42.148Z,99.90
2019-05-25T02:48:13.566Z,99.90
2019-05-25T02:50:45.850Z,99.90
2019-05-25T02:53:16.568Z,99.90
2019-05-25T02:55:47.357Z,99.90
2019-05-25T02:58:20.518Z,99.90
2019-05-25T03:00:51.275Z,99.90
2019-05-25T03:03:22.095Z,99.90
2019-05-25T03:05:53.328Z,99.90
2019-05-25T03:08:24.090Z,99.90
2019-05-25T03:10:55.472Z,99.90
2019-05-25T03:13:27.714Z,99.90
2019-05-25T03:15:58.506Z,99.90
2019-05-25T03:18:29.173Z,99.90
2019-05-25T03:20:59.999Z,99.90
2019-05-25T03:23:30.739Z,99.90
2019-05-25T03:26:01.753Z,99.90
2019-05-25T03:28:32.465Z,99.90
2019-05-25T03:31:03.232Z,99.90
2019-05-25T03:33:34.061Z,99.90
2019-05-25T03:36:07.953Z,99.90
2019-05-25T03:38:38.743Z,99.90
2019-05-25T03:41:09.540Z,99.90
2019-05-25T03:43:42.362Z,99.90
2019-05-25T03:46:14.138Z,99.90
2019-05-25T03:48:44.963Z,99.90
2019-05-25T03:51:16.913Z,99.90
2019-05-25T03:53:50.780Z,99.90
2019-05-25T03:56:25.344Z,99.90
2019-05-25T03:58:57.628Z,99.90
2019-05-25T04:01:28.923Z,99.90
2019-05-25T04:04:00.484Z,99.90
2019-05-25T04:06:32.837Z,99.90
2019-05-25T04:09:03.782Z,99.90
2019-05-25T04:11:34.597Z,99.90
2019-05-25T04:14:07.462Z,99.90
2019-05-25T04:16:38.293Z,99.90
2019-05-25T04:19:08.990Z,99.90
2019-05-25T04:21:44.948Z,99.90
2019-05-25T04:24:18.194Z,99.90
2019-05-25T04:26:48.967Z,99.90
2019-05-25T04:29:19.580Z,99.90
2019-05-25T04:31:50.265Z,99.90
2019-05-25T04:34:22.527Z,99.90
2019-05-25T04:36:53.321Z,99.90
2019-05-25T04:39:25.551Z,99.90
2019-05-25T04:41:56.399Z,99.90
2019-05-25T04:44:28.393Z,99.90
2019-05-25T04:46:59.197Z,99.90
2019-05-25T04:49:32.683Z,99.90
2019-05-25T04:52:03.402Z,99.90
2019-05-25T04:54:34.059Z,99.90
2019-05-25T04:57:05.203Z,99.90
2019-05-25T04:59:36.250Z,99.90
2019-05-25T05:02:06.817Z,99.90
2019-05-25T05:04:38.995Z,99.90
2019-05-25T05:07:09.725Z,99.90
2019-05-25T05:09:40.334Z,99.90
2019-05-25T05:12:11.031Z,99.90
2019-05-25T05:14:41.660Z,99.90
2019-05-25T05:17:12.457Z,99.90
2019-05-25T05:19:44.541Z,99.90
2019-05-25T05:22:20.862Z,99.90
2019-05-25T05:24:51.338Z,99.90
2019-05-25T05:27:22.023Z,99.90
2019-05-25T05:29:52.723Z,99.90
2019-05-25T05:32:27.697Z,99.90
2019-05-25T05:34:57.894Z,99.90
2019-05-25T05:37:29.488Z,99.90
2019-05-25T05:40:02.190Z,99.30
2019-05-25T05:42:35.955Z,98.60
2019-05-25T05:45:08.602Z,97.90
2019-05-25T05:47:39.748Z,97.90
2019-05-25T05:50:11.222Z,97.70
2019-05-25T05:52:42.901Z,96.60
2019-05-25T05:55:17.188Z,96.50
2019-05-25T05:57:49.147Z,96.00
2019-05-25T06:00:20.084Z,94.90
2019-05-25T06:02:53.659Z,94.70
2019-05-25T06:05:25.269Z,94.60
2019-05-25T06:07:57.206Z,94.10
2019-05-25T06:10:28.010Z,93.50
2019-05-25T06:12:58.983Z,93.50
2019-05-25T06:15:29.992Z,93.00
2019-05-25T06:18:02.222Z,91.70
2019-05-25T06:20:34.496Z,91.20
2019-05-25T06:23:08.626Z,90.80
2019-05-25T06:25:37.749Z,90.10
2019-05-25T06:28:12.285Z,90.10
2019-05-25T06:30:42.933Z,88.90
2019-05-25T06:33:15.386Z,88.90
2019-05-25T06:35:46.852Z,88.50
2019-05-25T06:38:17.653Z,87.40
2019-05-25T06:40:48.508Z,86.60
2019-05-25T06:43:19.739Z,85.60
2019-05-25T06:45:50.644Z,85.70
2019-05-25T06:48:21.288Z,85.10
2019-05-25T06:50:53.983Z,84.10
2019-05-25T06:53:24.779Z,83.80
2019-05-25T06:55:56.602Z,83.50
2019-05-25T06:58:27.329Z,83.80
2019-05-25T07:00:58.062Z,84.00
2019-05-25T07:03:28.874Z,83.30
2019-05-25T07:05:59.647Z,83.00
2019-05-25T07:08:30.199Z,82.60
2019-05-25T07:11:01.066Z,82.30
2019-05-25T07:13:38.820Z,82.40
2019-05-25T07:16:13.638Z,81.90
2019-05-25T07:18:44.339Z,79.80
2019-05-25T07:21:15.021Z,80.30
2019-05-25T07:23:45.633Z,80.00
2019-05-25T07:26:16.440Z,79.60
2019-05-25T07:28:47.360Z,79.50
2019-05-25T07:31:19.705Z,79.00
2019-05-25T07:33:50.549Z,78.30
2019-05-25T07:36:21.320Z,78.60
2019-05-25T08:45:28.079Z,77.60
2019-05-25T08:48:01.966Z,76.70
2019-05-25T08:50:38.303Z,76.60
2019-05-25T08:53:06.873Z,76.30
2019-05-25T08:55:43.347Z,76.10
2019-05-25T08:58:13.873Z,75.70
2019-05-25T09:00:44.622Z,76.20
2019-05-25T09:03:16.678Z,76.60
2019-05-25T09:05:47.351Z,76.60
2019-05-25T09:08:18.558Z,76.50
2019-05-25T09:10:49.381Z,76.80
2019-05-25T09:13:29.215Z,76.20
2019-05-25T09:16:02.342Z,76.30
2019-05-25T09:18:35.953Z,76.20
2019-05-25T09:21:10.644Z,76.30
2019-05-25T09:23:41.312Z,74.80
2019-05-25T09:26:19.179Z,74.10
2019-05-25T09:29:03.560Z,73.00
2019-05-25T09:31:33.189Z,70.60
2019-05-25T09:34:07.367Z,70.00
2019-05-25T09:36:41.175Z,70.30
2019-05-25T09:39:15.867Z,70.40
2019-05-25T09:41:50.844Z,68.80
2019-05-25T09:47:17.912Z,68.60
2019-05-25T09:49:50.264Z,68.20
2019-05-25T09:52:23.128Z,66.20
2019-05-25T09:54:57.794Z,65.30
2019-05-25T09:57:31.227Z,64.20
2019-05-25T10:00:04.331Z,64.30
2019-05-25T10:02:34.974Z,66.10
2019-05-25T10:05:23.716Z,67.80
2019-05-25T10:08:00.348Z,69.30
2019-05-25T10:10:31.171Z,69.50
2019-05-25T10:13:02.149Z,67.90
2019-05-25T10:15:34.300Z,67.00
2019-05-25T10:18:06.414Z,66.70
2019-05-25T10:20:37.067Z,66.40
2019-05-25T10:23:08.895Z,67.00
2019-05-25T10:25:39.566Z,65.40
2019-05-25T10:28:10.203Z,66.20
2019-05-25T10:52:11.843Z,64.90
2019-05-25T10:54:43.861Z,64.80
2019-05-25T11:31:02.957Z,64.00
2019-05-25T11:33:36.295Z,65.10
2019-05-25T11:36:05.882Z,67.00
2019-05-25T11:38:36.627Z,67.50
2019-05-25T11:41:07.491Z,67.40
2019-05-25T11:43:38.240Z,65.60
2019-05-25T11:46:08.773Z,65.00
2019-05-25T11:48:39.412Z,63.30
2019-05-25T11:51:10.071Z,62.30
2019-05-25T11:53:40.783Z,60.60
2019-05-25T11:56:11.338Z,60.10
2019-05-25T11:58:47.450Z,60.10
2019-05-25T12:01:14.797Z,60.70
2019-05-25T12:03:45.533Z,59.10
2019-05-25T12:06:16.113Z,59.90
2019-05-25T12:08:46.921Z,60.80
2019-05-25T12:11:17.642Z,60.60
2019-05-25T12:13:49.429Z,60.10
2019-05-25T12:16:20.551Z,60.10
2019-05-25T12:18:51.222Z,60.00
2019-05-25T12:21:22.019Z,59.90
2019-05-25T12:23:52.627Z,58.50
2019-05-25T12:26:23.517Z,59.70
2019-05-25T12:28:54.335Z,59.40
2019-05-25T12:31:24.999Z,58.90
2019-05-25T12:33:57.171Z,59.30
2019-05-25T12:36:30.084Z,58.70
2019-05-25T12:39:00.726Z,57.80
2019-05-25T12:41:31.946Z,58.90
2019-05-25T13:56:37.600Z,59.30
2019-05-25T13:59:09.503Z,58.20
2019-05-25T14:01:40.175Z,59.40
2019-05-25T14:04:20.579Z,61.00
2019-05-25T14:46:28.167Z,59.50
2019-05-25T14:48:58.856Z,58.40
2019-05-25T14:51:29.603Z,57.40
2019-05-25T14:54:00.751Z,57.70
2019-05-25T14:56:34.010Z,57.00
2019-05-25T14:59:05.087Z,55.30
2019-05-25T15:01:38.779Z,56.30
2019-05-25T15:04:09.757Z,56.70
2019-05-25T15:06:40.319Z,57.20
2019-05-25T15:09:10.996Z,57.50
2019-05-25T15:11:48.177Z,56.20
2019-05-25T15:14:14.092Z,55.40
2019-05-25T15:16:44.711Z,56.70
2019-05-25T15:19:15.306Z,56.30
2019-05-25T15:21:45.946Z,55.20
2019-05-25T15:24:17.572Z,54.60
2019-05-25T15:26:50.008Z,54.90
2019-05-25T15:29:22.347Z,56.10
2019-05-25T15:31:53.068Z,57.60
2019-05-25T15:34:25.406Z,59.60
2019-05-25T15:36:57.769Z,61.60
2019-05-25T15:39:28.453Z,62.10
2019-05-25T15:41:59.188Z,62.40
2019-05-25T15:44:30.122Z,63.00
2019-05-25T15:47:04.662Z,64.10
2019-05-25T15:49:33.858Z,64.60
2019-05-25T15:52:08.325Z,62.60
2019-05-25T15:54:39.333Z,61.30
2019-05-25T15:57:10.087Z,62.30
2019-05-25T15:59:41.894Z,62.00
2019-05-25T16:02:14.151Z,61.20
2019-05-25T16:04:45.948Z,59.60
2019-05-25T16:07:18.221Z,58.40
2019-05-25T16:09:50.643Z,57.50
2019-05-25T16:12:21.392Z,56.80
2019-05-25T16:14:52.611Z,56.20
2019-05-25T16:17:26.075Z,56.60
2019-05-25T16:19:56.769Z,55.40
2019-05-25T16:22:27.991Z,56.60
2019-05-25T16:24:59.062Z,56.60
2019-05-25T16:27:30.195Z,57.00
2019-05-25T16:30:00.797Z,56.40
2019-05-25T16:32:31.381Z,56.80
2019-05-25T16:35:02.026Z,56.40
2019-05-25T16:37:32.976Z,55.70
2019-05-25T16:40:03.668Z,55.40
2019-05-25T16:42:34.234Z,55.20
2019-05-25T16:45:06.088Z,55.90
2019-05-25T16:47:37.804Z,56.30
2019-05-25T16:50:09.358Z,57.40
2019-05-25T16:52:40.402Z,58.90
2019-05-25T16:55:12.140Z,60.70
2019-05-25T16:57:43.434Z,62.00
2019-05-25T17:00:16.101Z,63.00
2019-05-25T17:02:47.322Z,63.90
2019-05-25T17:06:23.927Z,64.20
2019-05-25T17:08:56.533Z,63.20
2019-05-25T17:11:28.893Z,60.60
2019-05-25T17:14:00.000Z,59.90
2019-05-25T17:16:33.055Z,59.20
2019-05-25T17:19:17.100Z,58.80
2019-05-25T17:21:49.717Z,59.60
2019-05-25T17:24:20.697Z,61.00
2019-05-25T17:26:52.323Z,61.90
2019-05-25T17:29:23.197Z,62.40
2019-05-25T17:31:53.906Z,63.00
2019-05-25T17:34:24.581Z,62.70
2019-05-25T17:36:56.249Z,63.20
2019-05-25T17:39:27.090Z,62.90
2019-05-25T17:41:58.006Z,62.70
2019-05-25T17:44:31.214Z,63.70
2019-05-25T17:47:01.886Z,64.30
2019-05-25T17:49:33.667Z,65.10
2019-05-25T17:52:04.385Z,65.20
2019-05-25T17:54:37.950Z,66.00
2019-05-25T17:57:10.837Z,66.40
2019-05-25T17:59:44.058Z,67.00
2019-05-25T18:02:14.872Z,66.80
2019-05-25T18:04:50.944Z,67.00
2019-05-25T18:07:34.394Z,67.30
2019-05-25T18:31:18.621Z,69.80
2019-05-25T18:33:49.332Z,70.40
2019-05-25T18:36:20.546Z,70.70
2019-05-25T18:38:53.263Z,70.90
2019-05-25T18:41:24.080Z,71.00
2019-05-25T18:43:54.891Z,71.50
2019-05-25T18:46:25.661Z,71.30
2019-05-25T18:48:56.349Z,71.60
2019-05-25T18:51:28.117Z,71.70
2019-05-25T18:53:58.867Z,71.80
2019-05-25T18:56:29.902Z,71.70
2019-05-25T18:59:01.159Z,72.00
2019-05-25T19:01:32.037Z,72.10
2019-05-25T19:04:06.003Z,72.20
2019-05-25T19:06:36.662Z,72.60
2019-05-25T19:09:10.198Z,72.60
2019-05-25T19:50:08.337Z,78.10
2019-05-25T19:52:39.571Z,78.50
2019-05-25T19:55:11.336Z,78.80
2019-05-25T19:57:45.272Z,79.30
2019-05-25T20:00:15.547Z,79.50
2019-05-25T20:02:47.895Z,79.90
2019-05-25T20:05:20.421Z,80.10
2019-05-25T20:07:51.506Z,80.30
2019-05-25T20:10:24.443Z,80.50
2019-05-25T20:12:55.516Z,80.80
2019-05-25T20:15:26.324Z,81.00
2019-05-25T20:17:57.051Z,81.30
2019-05-25T20:20:27.930Z,81.60
2019-05-25T20:22:58.724Z,81.70
2019-05-25T20:25:29.523Z,82.30
2019-05-25T20:28:00.690Z,82.70
2019-05-25T20:30:31.630Z,83.10
2019-05-25T20:33:02.455Z,83.50
2019-05-25T20:35:33.862Z,83.80
2019-05-25T20:38:04.932Z,84.40
2019-05-25T20:40:35.795Z,84.90
2019-05-25T20:43:06.670Z,85.40
2019-05-25T21:09:34.436Z,91.20
2019-05-25T21:12:05.452Z,91.70
2019-05-25T21:14:36.142Z,92.20
2019-05-25T21:17:06.995Z,92.30
2019-05-25T21:19:37.810Z,92.70
2019-05-25T21:22:10.061Z,92.70
2019-05-25T21:24:40.727Z,92.90
2019-05-25T21:27:24.800Z,93.30
2019-05-25T21:29:57.547Z,93.50
2019-05-25T21:32:29.991Z,93.90
2019-05-25T21:35:00.996Z,94.20
2019-05-25T21:37:34.467Z,94.70
2019-05-25T21:40:06.458Z,94.90
2019-05-25T21:42:39.386Z,95.20
2019-05-25T21:45:14.915Z,95.60
2019-05-25T21:47:45.829Z,95.70
2019-05-25T21:50:18.150Z,96.50
2019-05-25T21:52:49.754Z,96.60
2019-05-25T21:55:23.834Z,96.70
2019-05-25T21:57:58.337Z,96.90
2019-05-25T22:22:09.411Z,97.50
2019-05-25T22:24:41.815Z,97.70
2019-05-25T22:27:12.617Z,98.10
2019-05-25T22:29:43.398Z,98.50
2019-05-25T22:54:35.788Z,99.80
2019-05-25T22:57:17.174Z,99.90
2019-05-25T22:59:47.966Z,99.90
2019-05-25T23:02:19.759Z,99.90
2019-05-25T23:04:51.980Z,99.90
2019-05-25T23:07:25.124Z,99.90
2019-05-25T23:09:57.661Z,99.90
2019-05-25T23:12:32.441Z,99.90
2019-05-25T23:15:07.734Z,99.90
2019-05-25T23:17:38.637Z,99.90
2019-05-25T23:20:14.642Z,99.90
2019-05-25T23:22:45.630Z,99.90
2019-05-25T23:25:17.896Z,99.90
2019-05-25T23:27:48.923Z,99.90
2019-05-25T23:30:21.624Z,99.90
2019-05-25T23:33:15.344Z,99.90
2019-05-25T23:35:52.127Z,99.90
2019-05-25T23:38:24.660Z,99.90
2019-05-25T23:40:57.021Z,99.90
2019-05-25T23:43:42.159Z,99.90
